Time;durP1;ratioP1;P1;durP2;ratioP2;P2;SDS_P1;SDS_P2;PMS_P1;PMS_P2;Temp;Humidity;BMP_temperature;BMP_pressure;BME280_temperature;BME280_humidity;BME280_pressure;Samples;Min_cycle;Max_cycle;Signal;HPM_P1;HPM_P2
2024/01/19 00:01:01;;;;;;;0.40;0.40;;;;;;;7.13;100.00;95894.63;5064274;28;20060;-62
2024/01/19 00:03:28;;;;;;;0.40;0.40;;;;;;;7.16;100.00;95885.59;5063206;28;20048;-64
2024/01/19 00:05:54;;;;;;;0.40;0.40;;;;;;;7.08;100.00;95889.44;5062982;28;20514;-63
2024/01/19 00:08:21;;;;;;;0.40;0.40;;;;;;;7.18;100.00;95894.28;5064165;28;20064;-64
2024/01/19 00:10:48;;;;;;;0.30;0.30;;;;;;;7.12;100.00;95893.03;5064333;28;20051;-64
2024/01/19 00:13:15;;;;;;;0.40;0.40;;;;;;;5.97;100.00;95708.13;5063957;28;20495;-62
2024/01/19 00:15:41;;;;;;;0.40;0.40;;;;;;;7.11;100.00;95882.41;5064446;28;20078;-63
2024/01/19 00:18:09;;;;;;;0.40;0.40;;;;;;;7.12;100.00;95895.00;5063458;28;20510;-63
2024/01/19 00:20:36;;;;;;;0.40;0.40;;;;;;;6.94;100.00;95856.25;5069612;28;20179;-63
2024/01/19 00:23:04;;;;;;;0.32;0.32;;;;;;;7.29;100.00;95886.13;5062914;28;20063;-63
2024/01/19 00:25:31;;;;;;;0.40;0.40;;;;;;;6.88;100.00;95797.19;5062443;28;20049;-63
2024/01/19 00:27:57;;;;;;;0.40;0.40;;;;;;;7.25;100.00;95888.88;5064237;28;20044;-62
2024/01/19 00:30:24;;;;;;;0.40;0.40;;;;;;;7.18;100.00;95901.75;5063592;28;20443;-64
2024/01/19 00:32:51;;;;;;;0.40;0.40;;;;;;;7.23;100.00;95891.19;5062590;28;20147;-62
2024/01/19 00:35:18;;;;;;;0.40;0.40;;;;;;;7.19;100.00;95879.34;5064137;28;20056;-63
2024/01/19 00:37:47;;;;;;;0.40;0.40;;;;;;;6.99;100.00;95902.72;5063687;28;20086;-63
2024/01/19 00:40:14;;;;;;;0.40;0.40;;;;;;;7.15;100.00;95902.50;5062483;28;20067;-63
2024/01/19 00:42:42;;;;;;;0.30;0.30;;;;;;;7.30;100.00;95899.53;5058630;28;20079;-65
2024/01/19 00:45:10;;;;;;;0.40;0.40;;;;;;;7.42;100.00;95899.28;5044125;28;20060;-63
2024/01/19 00:47:38;;;;;;;0.40;0.40;;;;;;;7.45;100.00;95898.53;5049933;28;20075;-64
2024/01/19 00:50:06;;;;;;;0.30;0.30;;;;;;;7.20;100.00;95875.44;5044064;28;20396;-64
2024/01/19 00:52:33;;;;;;;0.38;0.38;;;;;;;7.49;100.00;95893.06;5044072;28;20061;-64
2024/01/19 00:55:00;;;;;;;0.40;0.40;;;;;;;7.48;100.00;95892.25;5043836;28;20502;-63
2024/01/19 00:57:27;;;;;;;0.40;0.40;;;;;;;7.06;100.00;95825.72;5044214;28;20049;-64
2024/01/19 00:59:55;;;;;;;0.40;0.40;;;;;;;7.50;100.00;95889.91;5043605;28;20056;-63
2024/01/19 01:02:22;;;;;;;0.40;0.40;;;;;;;7.54;100.00;95889.94;5043708;28;20143;-62
2024/01/19 01:04:49;;;;;;;0.40;0.40;;;;;;;7.56;100.00;95888.41;5044028;28;20067;-63
2024/01/19 01:07:16;;;;;;;0.40;0.40;;;;;;;7.53;100.00;95886.41;5043324;28;20585;-63
2024/01/19 01:09:43;;;;;;;0.40;0.40;;;;;;;7.61;100.00;95923.06;5058678;28;20132;-63
2024/01/19 01:12:09;;;;;;;0.40;0.40;;;;;;;7.56;100.00;95877.38;5043851;28;20048;-63
2024/01/19 01:14:36;;;;;;;0.40;0.40;;;;;;;7.72;100.00;95874.38;5043368;28;20171;-63
2024/01/19 01:17:03;;;;;;;0.40;0.40;;;;;;;7.48;100.00;95839.09;5043588;28;20099;-63
2024/01/19 01:19:31;;;;;;;0.40;0.40;;;;;;;7.54;100.00;95868.69;5043797;28;20435;-64
2024/01/19 01:21:59;;;;;;;0.40;0.40;;;;;;;7.55;100.00;95875.81;5043246;28;20053;-63
2024/01/19 01:24:25;;;;;;;0.35;0.35;;;;;;;7.33;100.00;95865.72;5043390;28;20566;-62
2024/01/19 01:26:52;;;;;;;0.40;0.40;;;;;;;7.47;100.00;95879.66;5043148;28;20049;-64
2024/01/19 01:29:19;;;;;;;0.40;0.40;;;;;;;7.26;100.00;95876.66;5043338;28;20315;-63
2024/01/19 01:31:48;;;;;;;0.35;0.35;;;;;;;6.54;100.00;95861.66;5042128;28;20134;-63
2024/01/19 01:34:14;;;;;;;0.40;0.40;;;;;;;6.30;100.00;95837.34;5058775;28;20178;-63
2024/01/19 01:36:41;;;;;;;0.30;0.30;;;;;;;6.61;100.00;95853.47;5043120;28;20186;-63
2024/01/19 01:39:11;;;;;;;0.32;0.32;;;;;;;6.83;100.00;95876.56;5041826;28;20577;-63
2024/01/19 01:41:44;;;;;;;0.40;0.40;;;;;;;6.86;100.00;95870.31;5044402;28;20068;-64
2024/01/19 01:44:11;;;;;;;0.30;0.30;;;;;;;6.92;100.00;95877.88;5062550;28;20083;-64
2024/01/19 01:46:38;;;;;;;0.40;0.40;;;;;;;7.01;100.00;95872.84;5067350;28;20075;-63
2024/01/19 01:49:05;;;;;;;0.40;0.40;;;;;;;7.04;100.00;95877.59;5065720;28;20300;-65
2024/01/19 01:51:33;;;;;;;0.30;0.30;;;;;;;6.47;100.00;95787.28;5065777;28;20059;-64
2024/01/19 01:54:03;;;;;;;0.40;0.40;;;;;;;7.12;100.00;95895.78;5067002;28;20044;-65
2024/01/19 01:56:30;;;;;;;0.40;0.40;;;;;;;7.18;100.00;95877.75;5066799;28;20519;-63
2024/01/19 01:58:58;;;;;;;0.30;0.30;;;;;;;7.14;100.00;95854.13;5066565;28;20068;-63
2024/01/19 02:01:25;;;;;;;0.35;0.35;;;;;;;7.31;100.00;95876.34;5066685;28;20523;-66
2024/01/19 02:03:55;;;;;;;0.40;0.40;;;;;;;7.38;100.00;95881.91;5066709;28;20114;-63
2024/01/19 02:06:22;;;;;;;0.40;0.40;;;;;;;7.36;100.00;95884.25;5066742;28;20052;-62
2024/01/19 02:08:49;;;;;;;0.40;0.40;;;;;;;7.35;100.00;95877.16;5066695;28;20083;-64
2024/01/19 02:11:16;;;;;;;0.35;0.35;;;;;;;6.80;100.00;95795.53;5066678;28;20471;-64
2024/01/19 02:13:43;;;;;;;0.40;0.40;;;;;;;7.35;100.00;95865.38;5065256;28;20044;-63
2024/01/19 02:16:10;;;;;;;0.40;0.40;;;;;;;7.41;100.00;95881.16;5065168;28;20048;-64
2024/01/19 02:18:36;;;;;;;0.40;0.40;;;;;;;7.49;100.00;95888.31;5065018;28;20521;-63
2024/01/19 02:21:04;;;;;;;0.40;0.40;;;;;;;7.57;100.00;95883.69;5065044;28;20052;-62
2024/01/19 02:23:43;;;;;;;0.40;0.40;;;;;;;7.17;100.00;95836.84;5066404;28;20052;-64
2024/01/19 02:26:10;;;;;;;0.40;0.40;;;;;;;7.38;100.00;95887.41;5064710;28;20768;-64
2024/01/19 02:28:37;;;;;;;0.38;0.38;;;;;;;7.42;100.00;95903.97;5066559;28;20064;-63
2024/01/19 02:31:04;;;;;;;0.40;0.40;;;;;;;7.19;100.00;95864.78;5063627;28;20063;-63
2024/01/19 02:33:30;;;;;;;0.40;0.40;;;;;;;7.16;100.00;95847.06;5064923;28;20048;-62
2024/01/19 02:35:57;;;;;;;0.40;0.40;;;;;;;7.19;100.00;95845.53;5066265;28;20052;-65
2024/01/19 02:38:24;;;;;;;0.40;0.40;;;;;;;7.32;100.00;95866.91;5066338;28;20048;-63
2024/01/19 02:40:51;;;;;;;0.40;0.40;;;;;;;7.55;100.00;95892.34;5065949;28;20079;-62
2024/01/19 02:43:17;;;;;;;0.40;0.40;;;;;;;7.45;100.00;95893.00;5056783;28;20053;-65
2024/01/19 02:45:44;;;;;;;0.40;0.40;;;;;;;7.55;100.00;95889.56;5045943;28;20071;-63
2024/01/19 02:48:12;;;;;;;0.40;0.40;;;;;;;7.60;100.00;95878.19;5045681;28;20052;-64
2024/01/19 02:50:39;;;;;;;0.30;0.30;;;;;;;7.51;100.00;95885.97;5045606;28;20053;-62
2024/01/19 02:53:06;;;;;;;0.38;0.38;;;;;;;7.09;100.00;95858.00;5030638;28;20056;-64
2024/01/19 02:55:33;;;;;;;0.38;0.38;;;;;;;7.39;100.00;95889.00;5045767;28;20049;-64
2024/01/19 02:58:00;;;;;;;0.40;0.40;;;;;;;7.04;100.00;95817.03;5045805;28;20059;-64
2024/01/19 03:00:27;;;;;;;0.40;0.40;;;;;;;7.51;100.00;95890.69;5044031;28;20065;-64
2024/01/19 03:02:53;;;;;;;0.40;0.40;;;;;;;7.59;100.00;95897.84;5044306;28;20061;-64
2024/01/19 03:05:20;;;;;;;0.40;0.40;;;;;;;6.74;100.00;95749.47;5044284;28;20067;-63
2024/01/19 03:07:47;;;;;;;0.40;0.40;;;;;;;7.64;100.00;95884.53;5045916;28;20059;-62
2024/01/19 03:10:14;;;;;;;0.40;0.40;;;;;;;7.03;100.00;95765.91;5045997;28;20144;-64
2024/01/19 03:12:41;;;;;;;0.40;0.40;;;;;;;7.45;100.00;95848.94;5045567;28;20045;-62
2024/01/19 03:15:08;;;;;;;0.40;0.40;;;;;;;7.77;100.00;95882.28;5045442;28;20053;-63
2024/01/19 03:17:35;;;;;;;0.40;0.40;;;;;;;7.81;100.00;95876.81;5045634;28;20510;-63
2024/01/19 03:20:02;;;;;;;0.40;0.40;;;;;;;7.87;100.00;95891.81;5045726;28;20432;-66
2024/01/19 03:22:29;;;;;;;0.40;0.40;;;;;;;7.89;100.00;95892.25;5045463;28;20400;-66
2024/01/19 03:24:56;;;;;;;0.40;0.40;;;;;;;7.91;100.00;95887.13;5045716;28;20053;-62
2024/01/19 03:27:23;;;;;;;0.40;0.40;;;;;;;7.82;100.00;95884.69;5043559;28;20504;-63
2024/01/19 03:29:49;;;;;;;0.40;0.40;;;;;;;5.80;100.00;95565.78;5043543;28;20057;-62
2024/01/19 03:32:16;;;;;;;0.40;0.40;;;;;;;7.38;100.00;95829.56;5043601;28;20115;-63
2024/01/19 03:34:44;;;;;;;0.40;0.40;;;;;;;7.53;100.00;95916.72;5044032;28;20151;-63
2024/01/19 03:37:10;;;;;;;0.40;0.40;;;;;;;7.04;100.00;95926.34;5043766;28;20421;-62
2024/01/19 03:39:37;;;;;;;0.40;0.40;;;;;;;7.18;100.00;95908.06;5045156;28;20060;-63
2024/01/19 03:42:04;;;;;;;0.40;0.40;;;;;;;7.02;100.00;95868.91;5045046;28;20053;-64
2024/01/19 03:44:31;;;;;;;0.30;0.30;;;;;;;7.31;100.00;95909.38;5027614;28;20373;-63
2024/01/19 03:46:59;;;;;;;0.40;0.40;;;;;;;7.31;100.00;95909.38;5025104;28;20061;-62
2024/01/19 03:49:26;;;;;;;0.40;0.40;;;;;;;7.26;100.00;95917.97;5024932;28;20057;-64
2024/01/19 03:52:00;;;;;;;0.30;0.30;;;;;;;7.36;100.00;95911.81;5024914;28;20053;-63
2024/01/19 03:54:27;;;;;;;0.40;0.40;;;;;;;7.36;100.00;95911.81;5025000;28;20049;-63
2024/01/19 03:56:57;;;;;;;0.45;0.45;;;;;;;7.38;100.00;95925.97;5023305;28;20053;-62
2024/01/19 03:59:24;;;;;;;0.40;0.40;;;;;;;7.31;100.00;95928.66;5024504;28;20521;-64
2024/01/19 04:01:51;;;;;;;0.40;0.40;;;;;;;7.52;100.00;95931.63;5023177;28;20045;-65
2024/01/19 04:04:18;;;;;;;0.30;0.30;;;;;;;7.42;100.00;95887.47;5022528;28;20162;-64
2024/01/19 04:06:45;;;;;;;0.40;0.40;;;;;;;6.97;100.00;95805.94;5024646;28;20079;-63
2024/01/19 04:09:14;;;;;;;0.50;0.50;;;;;;;7.75;100.00;95934.25;5024652;28;20496;-62
2024/01/19 04:11:43;;;;;;;0.40;0.40;;;;;;;7.44;100.00;95899.69;5022972;28;20059;-63
2024/01/19 04:14:10;;;;;;;0.40;0.40;;;;;;;7.63;100.00;95931.75;5024768;28;20127;-62
2024/01/19 04:16:38;;;;;;;0.40;0.40;;;;;;;7.73;100.00;95920.03;5024169;28;20049;-62
2024/01/19 04:19:07;;;;;;;0.40;0.40;;;;;;;7.78;100.00;95921.69;5024349;28;20505;-62
2024/01/19 04:21:34;;;;;;;0.40;0.40;;;;;;;7.43;100.00;95873.31;5024423;28;20061;-63
2024/01/19 04:24:02;;;;;;;0.40;0.40;;;;;;;7.63;100.00;95893.97;5024339;28;20076;-65
2024/01/19 04:26:29;;;;;;;0.40;0.40;;;;;;;8.00;100.00;95931.72;5024080;28;20439;-63
2024/01/19 04:28:56;;;;;;;0.40;0.40;;;;;;;7.98;100.00;95947.84;5024195;28;20057;-61
2024/01/19 04:31:23;;;;;;;0.40;0.40;;;;;;;7.70;100.00;95905.06;5024510;28;20061;-62
2024/01/19 04:33:50;;;;;;;0.40;0.40;;;;;;;7.57;100.00;95938.78;5024538;28;20049;-64
2024/01/19 04:36:17;;;;;;;0.40;0.40;;;;;;;6.30;100.00;95952.84;5022985;28;20056;-62
2024/01/19 04:38:45;;;;;;;0.30;0.30;;;;;;;6.13;100.00;95958.88;5024298;28;20568;-62
2024/01/19 04:41:12;;;;;;;0.32;0.32;;;;;;;6.40;100.00;95960.47;5022439;28;20510;-62
2024/01/19 04:43:38;;;;;;;0.30;0.30;;;;;;;6.38;100.00;95943.53;5033381;28;20067;-62
2024/01/19 04:46:05;;;;;;;0.30;0.30;;;;;;;6.53;100.00;95948.06;5042426;28;20052;-61
2024/01/19 04:48:32;;;;;;;0.30;0.30;;;;;;;6.63;100.00;95950.19;5044087;28;20049;-62
2024/01/19 04:50:59;;;;;;;0.40;0.40;;;;;;;6.87;100.00;95957.22;5043592;28;20072;-63
2024/01/19 04:53:26;;;;;;;0.30;0.30;;;;;;;7.11;100.00;95954.75;5043629;28;20057;-63
2024/01/19 04:55:53;;;;;;;0.30;0.30;;;;;;;6.50;100.00;95860.81;5042052;28;20047;-61
2024/01/19 04:58:19;;;;;;;0.30;0.30;;;;;;;6.11;100.00;95879.50;5041268;28;20084;-63
2024/01/19 05:00:47;;;;;;;0.40;0.40;;;;;;;5.66;100.00;95901.50;5043513;28;20056;-61
2024/01/19 05:03:15;;;;;;;0.32;0.32;;;;;;;6.33;100.00;95965.84;5043633;28;20079;-62
2024/01/19 05:05:42;;;;;;;0.40;0.40;;;;;;;6.42;100.00;95960.09;5043505;28;20053;-61
2024/01/19 05:08:09;;;;;;;0.40;0.40;;;;;;;6.49;100.00;95961.00;5042063;28;20055;-63
2024/01/19 05:10:36;;;;;;;0.40;0.40;;;;;;;6.68;100.00;95963.63;5043920;28;20136;-61
2024/01/19 05:13:03;;;;;;;0.40;0.40;;;;;;;6.74;100.00;95967.66;5043616;28;20049;-61
2024/01/19 05:15:30;;;;;;;0.30;0.30;;;;;;;6.58;100.00;95974.47;5044936;28;20167;-62
2024/01/19 05:17:57;;;;;;;0.30;0.30;;;;;;;6.54;100.00;95985.44;5047919;28;20057;-62
2024/01/19 05:20:24;;;;;;;0.30;0.30;;;;;;;6.35;100.00;95940.72;5047956;28;20052;-63
2024/01/19 05:22:51;;;;;;;0.40;0.40;;;;;;;6.74;100.00;95989.66;5047572;28;20053;-61
2024/01/19 05:25:18;;;;;;;0.38;0.38;;;;;;;6.68;100.00;95982.91;5047691;28;20150;-61
2024/01/19 05:27:45;;;;;;;0.30;0.30;;;;;;;6.69;100.00;95989.97;5047487;28;20500;-63
2024/01/19 05:30:13;;;;;;;0.40;0.40;;;;;;;6.76;100.00;96001.09;5029516;28;20521;-62
2024/01/19 05:32:40;;;;;;;0.40;0.40;;;;;;;6.85;100.00;95989.81;5047542;28;20060;-61
2024/01/19 05:35:08;;;;;;;0.40;0.40;;;;;;;6.75;100.00;95995.97;5047613;28;20055;-61
2024/01/19 05:37:35;;;;;;;0.32;0.32;;;;;;;6.37;100.00;95985.94;5045521;28;20510;-63
2024/01/19 05:40:03;;;;;;;0.30;0.30;;;;;;;6.37;100.00;95991.44;5047549;28;20060;-61
2024/01/19 05:42:30;;;;;;;0.40;0.40;;;;;;;6.46;100.00;96011.25;5046990;28;20045;-61
2024/01/19 05:44:57;;;;;;;0.30;0.30;;;;;;;6.53;100.00;96008.59;5025712;28;20075;-63
2024/01/19 05:47:23;;;;;;;0.40;0.40;;;;;;;6.18;100.00;95952.25;5026893;28;20068;-64
2024/01/19 05:49:50;;;;;;;0.40;0.40;;;;;;;6.07;100.00;95933.63;5027298;28;20049;-62
2024/01/19 05:52:20;;;;;;;0.40;0.40;;;;;;;6.65;100.00;96008.41;5026799;28;20049;-62
2024/01/19 05:54:47;;;;;;;0.40;0.40;;;;;;;6.06;100.00;95931.25;5025849;28;20057;-62
2024/01/19 05:57:13;;;;;;;0.30;0.30;;;;;;;6.73;100.00;96021.09;5027167;28;20061;-62
2024/01/19 05:59:40;;;;;;;0.30;0.30;;;;;;;6.16;100.00;95920.41;5025495;28;20252;-63
2024/01/19 06:02:07;;;;;;;0.40;0.40;;;;;;;6.58;100.00;95969.78;5027097;28;20056;-63
2024/01/19 06:04:37;;;;;;;0.30;0.30;;;;;;;6.76;100.00;96009.34;5025747;28;20054;-62
2024/01/19 06:07:04;;;;;;;0.30;0.30;;;;;;;6.56;100.00;95983.09;5026393;28;20531;-64
2024/01/19 06:09:31;;;;;;;0.30;0.30;;;;;;;6.36;100.00;95948.59;5025468;28;20136;-62
2024/01/19 06:11:58;;;;;;;0.40;0.40;;;;;;;6.83;100.00;96014.94;5025139;28;20060;-62
2024/01/19 06:14:25;;;;;;;0.40;0.40;;;;;;;6.90;100.00;96025.28;5026841;28;20138;-64
2024/01/19 06:16:52;;;;;;;0.30;0.30;;;;;;;6.99;100.00;96025.78;5025366;28;20147;-62
2024/01/19 06:19:19;;;;;;;0.40;0.40;;;;;;;5.91;100.00;95849.75;5025095;28;20057;-62
2024/01/19 06:21:46;;;;;;;0.40;0.40;;;;;;;7.05;100.00;96027.84;5026852;28;20050;-63
2024/01/19 06:24:17;;;;;;;0.40;0.40;;;;;;;7.08;100.00;96018.84;5026612;28;20059;-63
2024/01/19 06:26:45;;;;;;;0.40;0.40;;;;;;;7.00;100.00;96019.91;5024662;28;20447;-63
2024/01/19 06:29:12;;;;;;;0.30;0.30;;;;;;;7.22;100.00;96043.81;5026049;28;20092;-62
2024/01/19 06:31:46;;;;;;;0.40;0.40;;;;;;;7.30;100.00;96051.00;5024692;28;20057;-62
2024/01/19 06:34:14;;;;;;;0.40;0.40;;;;;;;6.80;100.00;95988.16;5024926;28;20490;-63
2024/01/19 06:36:44;;;;;;;0.40;0.40;;;;;;;7.34;100.00;96057.38;5026449;28;20059;-63
2024/01/19 06:39:12;;;;;;;0.40;0.40;;;;;;;7.39;100.00;96047.97;5010523;28;20056;-60
2024/01/19 06:41:44;;;;;;;0.40;0.40;;;;;;;7.39;100.00;96048.78;5024618;28;20046;-62
2024/01/19 06:44:12;;;;;;;0.40;0.40;;;;;;;7.59;100.00;96052.97;5038117;28;20067;-63
2024/01/19 06:46:46;;;;;;;0.40;0.40;;;;;;;7.16;100.00;96026.03;5043015;28;20436;-62
2024/01/19 06:49:14;;;;;;;0.40;0.40;;;;;;;7.56;100.00;96058.44;5044392;28;20424;-61
2024/01/19 06:51:41;;;;;;;0.40;0.40;;;;;;;7.59;100.00;96064.00;5043861;28;20056;-61
2024/01/19 06:54:09;;;;;;;0.40;0.40;;;;;;;7.52;100.00;96025.31;5024850;28;20544;-66
2024/01/19 06:56:36;;;;;;;0.40;0.40;;;;;;;5.96;100.00;95772.47;5023940;28;20548;-70
2024/01/19 06:59:03;;;;;;;0.47;0.47;;;;;;;8.05;100.00;96069.22;5021766;28;20220;-72
2024/01/19 07:01:29;;;;;;;0.40;0.40;;;;;;;7.40;100.00;95939.38;5024077;28;20041;-69
2024/01/19 07:03:56;;;;;;;0.40;0.40;;;;;;;8.48;100.00;96051.97;5024633;28;20133;-70
2024/01/19 07:06:23;;;;;;;0.40;0.40;;;;;;;8.69;100.00;96060.44;5022072;28;20057;-70
2024/01/19 07:08:50;;;;;;;0.50;0.50;;;;;;;8.86;100.00;96054.25;5035842;28;20180;-71
2024/01/19 07:11:18;;;;;;;0.40;0.40;;;;;;;8.51;100.00;95971.16;5042649;28;20055;-74
2024/01/19 07:13:46;;;;;;;0.40;0.40;;;;;;;9.05;100.00;96029.13;5045488;28;20048;-65
2024/01/19 07:16:13;;;;;;;0.50;0.50;;;;;;;9.06;100.00;95964.41;5041283;28;20059;-61
2024/01/19 07:18:40;;;;;;;0.40;0.40;;;;;;;9.32;100.00;95983.50;5025641;28;20041;-64
2024/01/19 07:21:07;;;;;;;0.50;0.50;;;;;;;9.30;100.00;95991.38;5030784;28;20044;-68
2024/01/19 07:23:34;;;;;;;0.50;0.50;;;;;;;10.00;100.00;96058.03;5041978;28;20048;-66
2024/01/19 07:26:19;;;;;;;0.50;0.50;;;;;;;10.19;100.00;96052.19;5059492;28;20761;-60
2024/01/19 07:28:46;;;;;;;0.50;0.50;;;;;;;10.07;100.00;96027.63;5060283;28;20538;-64
2024/01/19 07:31:13;;;;;;;0.40;0.40;;;;;;;9.89;100.00;95962.38;5059922;28;20052;-65
2024/01/19 07:33:40;;;;;;;0.43;0.43;;;;;;;10.13;100.00;95978.25;5057609;28;20063;-62
2024/01/19 07:36:07;;;;;;;0.50;0.50;;;;;;;10.31;100.00;96001.19;5046710;28;20063;-63
2024/01/19 07:38:34;;;;;;;0.50;0.50;;;;;;;10.06;100.00;95951.34;5032524;28;20064;-68
2024/01/19 07:41:01;;;;;;;0.47;0.47;;;;;;;10.82;100.00;96059.78;5032535;28;20076;-62
2024/01/19 07:43:28;;;;;;;0.50;0.50;;;;;;;10.80;100.00;96053.03;5038356;28;20055;-65
2024/01/19 07:45:55;;;;;;;0.40;0.40;;;;;;;10.75;100.00;96042.38;5020825;28;20060;-65
2024/01/19 07:48:21;;;;;;;0.50;0.50;;;;;;;10.97;100.00;96049.50;5020450;28;20052;-62
2024/01/19 07:50:48;;;;;;;0.50;0.50;;;;;;;11.08;100.00;96044.72;5039285;28;20063;-68
2024/01/19 07:53:15;;;;;;;0.50;0.50;;;;;;;10.56;100.00;95952.97;5022516;28;20144;-65
2024/01/19 07:55:42;;;;;;;0.50;0.50;;;;;;;11.11;100.00;96010.69;5025338;28;20057;-64
2024/01/19 07:58:09;;;;;;;0.50;0.50;;;;;;;11.47;100.00;96048.22;5018834;28;20068;-70
2024/01/19 08:00:36;;;;;;;0.50;0.50;;;;;;;10.56;100.00;95880.97;5019605;28;20065;-63
2024/01/19 08:03:04;;;;;;;0.50;0.50;;;;;;;9.82;100.00;95739.16;5036955;28;20060;-70
2024/01/19 08:05:31;;;;;;;0.52;0.52;;;;;;;11.91;100.00;96042.94;5032254;28;20057;-68
2024/01/19 08:07:57;;;;;;;0.50;0.50;;;;;;;11.65;98.70;95997.06;5018644;28;20054;-70
2024/01/19 08:10:25;;;;;;;0.50;0.50;;;;;;;12.20;99.40;96033.28;5022757;28;20060;-70
2024/01/19 08:12:51;;;;;;;0.60;0.60;;;;;;;11.40;97.88;95873.53;5028125;28;20045;-69
2024/01/19 08:15:18;;;;;;;0.52;0.52;;;;;;;12.28;97.44;95982.06;5036678;28;20132;-70
2024/01/19 08:17:45;;;;;;;0.57;0.57;;;;;;;11.30;96.54;95830.81;5029130;28;20461;-66
2024/01/19 08:20:12;;;;;;;0.60;0.60;;;;;;;12.75;91.35;96020.22;5026503;28;20063;-66
2024/01/19 08:22:39;;;;;;;0.60;0.60;;;;;;;13.18;90.86;96042.91;5038398;28;20049;-61
2024/01/19 08:25:06;;;;;;;0.60;0.60;;;;;;;13.36;90.39;96049.88;5036509;28;20373;-61
2024/01/19 08:27:32;;;;;;;0.60;0.60;;;;;;;12.00;89.83;95797.09;5020239;28;20049;-70
2024/01/19 08:29:59;;;;;;;0.60;0.60;;;;;;;13.72;87.16;96043.94;5018853;28;20473;-68
2024/01/19 08:32:26;;;;;;;0.60;0.60;;;;;;;13.80;85.72;96045.44;5018945;28;20080;-69
2024/01/19 08:34:53;;;;;;;0.60;0.60;;;;;;;14.01;86.17;96059.09;5022719;28;20044;-60
2024/01/19 08:37:20;;;;;;;0.60;0.60;;;;;;;14.19;83.78;96068.00;5025906;28;20059;-57
2024/01/19 08:39:47;;;;;;;0.60;0.60;;;;;;;14.15;82.41;96072.81;5007490;28;20046;-71
2024/01/19 08:42:14;;;;;;;0.70;0.70;;;;;;;13.74;81.78;95997.00;5014665;28;20073;-71
2024/01/19 08:44:44;;;;;;;0.50;0.50;;;;;;;14.21;82.19;96054.47;5015712;28;20745;-62
2024/01/19 08:47:12;;;;;;;0.60;0.60;;;;;;;13.79;81.93;95982.59;5017239;28;20580;-66
2024/01/19 08:49:38;;;;;;;0.70;0.70;;;;;;;14.43;82.39;96078.09;5017160;28;20041;-69
2024/01/19 08:52:05;;;;;;;0.70;0.70;;;;;;;14.35;81.39;96049.50;5005584;28;20746;-69
2024/01/19 08:54:32;;;;;;;0.60;0.60;;;;;;;14.73;81.46;96069.69;5023261;28;20057;-59
2024/01/19 08:56:59;;;;;;;0.70;0.70;;;;;;;14.99;77.05;96077.25;5022844;28;20046;-71
2024/01/19 08:59:31;;;;;;;0.70;0.70;;;;;;;15.28;75.22;96077.56;5037002;28;20053;-60
2024/01/19 09:01:59;;;;;;;0.50;0.50;;;;;;;15.39;76.67;96072.63;5024283;28;21005;-69
2024/01/19 09:04:25;;;;;;;0.70;0.70;;;;;;;15.58;76.30;96069.09;5025822;28;20053;-57
2024/01/19 09:06:56;;;;;;;0.68;0.68;;;;;;;15.79;73.02;96075.06;5025692;28;20134;-56
2024/01/19 09:09:25;;;;;;;0.70;0.70;;;;;;;15.52;72.28;96043.69;5024636;28;20052;-68
2024/01/19 09:11:52;;;;;;;0.60;0.60;;;;;;;15.72;72.62;96069.63;5025296;28;20141;-71
2024/01/19 09:14:20;;;;;;;0.80;0.80;;;;;;;15.73;71.13;96051.66;5025628;28;20420;-57
2024/01/19 09:16:47;;;;;;;0.70;0.70;;;;;;;15.49;71.76;96052.91;5025130;28;20776;-56
2024/01/19 09:19:14;;;;;;;0.60;0.60;;;;;;;15.51;72.82;96047.69;5023625;28;20409;-57
2024/01/19 09:21:44;;;;;;;0.70;0.70;;;;;;;15.45;74.43;96054.97;5024706;28;20137;-60
2024/01/19 09:24:12;;;;;;;0.60;0.60;;;;;;;15.02;74.19;95998.31;5024012;28;20061;-56
2024/01/19 09:26:39;;;;;;;0.70;0.70;;;;;;;15.37;74.25;96052.69;5023746;28;20531;-61
2024/01/19 09:29:08;;;;;;;0.65;0.65;;;;;;;15.56;72.83;96055.56;5025026;28;20512;-57
2024/01/19 09:31:46;;;;;;;0.70;0.70;;;;;;;15.29;72.09;95996.22;5023036;28;20136;-59
2024/01/19 09:34:16;;;;;;;0.70;0.70;;;;;;;15.40;74.14;96054.66;5003854;28;20053;-68
2024/01/19 09:36:43;;;;;;;0.60;0.60;;;;;;;15.59;74.07;96054.72;5005686;28;20062;-68
2024/01/19 09:39:10;;;;;;;0.70;0.70;;;;;;;15.65;71.89;96057.81;5005287;28;20049;-70
2024/01/19 09:41:46;;;;;;;0.60;0.60;;;;;;;15.86;70.47;96047.03;5004939;28;20075;-70
2024/01/19 09:44:17;;;;;;;0.68;0.68;;;;;;;15.96;67.71;96062.78;5004742;28;20057;-73
2024/01/19 09:46:51;;;;;;;0.60;0.60;;;;;;;15.38;67.80;95937.09;5017223;28;20060;-63
2024/01/19 09:49:18;;;;;;;0.60;0.60;;;;;;;16.36;67.33;96039.19;5023546;28;20516;-75
2024/01/19 09:52:01;;;;;;;0.60;0.60;;;;;;;16.52;64.64;96047.66;5021046;28;20049;-62
2024/01/19 09:54:34;;;;;;;0.70;0.70;;;;;;;16.13;63.99;95971.44;5010771;28;20054;-62
2024/01/19 09:57:03;;;;;;;0.70;0.70;;;;;;;16.52;63.49;96011.31;5020498;28;20440;-66
2024/01/19 09:59:32;;;;;;;0.70;0.70;;;;;;;16.93;62.71;96046.34;5003408;28;20065;-63
2024/01/19 10:02:00;;;;;;;0.70;0.70;;;;;;;16.88;62.16;95999.28;5009927;28;20049;-65
2024/01/19 10:04:28;;;;;;;0.70;0.70;;;;;;;17.20;60.48;96041.28;5005497;28;20104;-74
2024/01/19 10:06:55;;;;;;;0.70;0.70;;;;;;;17.28;60.54;96028.66;5004339;28;20149;-74
2024/01/19 10:09:23;;;;;;;0.70;0.70;;;;;;;17.30;59.30;96032.59;5011266;28;20148;-61
2024/01/19 10:11:54;;;;;;;0.75;0.75;;;;;;;17.50;58.94;96021.31;5023391;28;20088;-61
2024/01/19 10:14:23;;;;;;;0.70;0.70;;;;;;;17.66;59.12;96010.06;5003579;28;20088;-59
2024/01/19 10:16:51;;;;;;;0.70;0.70;;;;;;;17.81;58.16;96017.66;5002079;28;20046;-62
2024/01/19 10:19:20;;;;;;;0.68;0.68;;;;;;;17.70;58.89;96005.19;5011225;28;20046;-58
2024/01/19 10:21:49;;;;;;;0.70;0.70;;;;;;;17.84;56.47;96004.78;5013571;28;20049;-59
2024/01/19 10:24:19;;;;;;;0.70;0.70;;;;;;;17.93;56.95;96002.13;5022287;28;20122;-73
2024/01/19 10:26:52;;;;;;;0.70;0.70;;;;;;;17.93;56.28;95941.28;5023778;28;20833;-75
2024/01/19 10:29:20;;;;;;;;;;;;;;;18.22;55.63;95985.28;5024556;28;20075;-61
2024/01/19 10:31:54;;;;;;;0.80;0.80;;;;;;;18.26;55.14;95992.34;5026628;28;20019;-70
2024/01/19 10:34:23;;;;;;;0.80;0.80;;;;;;;18.31;54.22;95977.78;5043211;28;20049;-63
2024/01/19 10:36:51;;;;;;;0.70;0.70;;;;;;;18.45;53.50;95977.38;5038740;28;20543;-66
2024/01/19 10:39:19;;;;;;;0.70;0.70;;;;;;;18.73;55.71;95976.47;5027494;28;20041;-68
2024/01/19 10:41:48;;;;;;;0.80;0.80;;;;;;;18.62;55.09;95931.13;5035209;28;20502;-68
2024/01/19 10:44:17;;;;;;;0.80;0.80;;;;;;;18.79;54.56;95907.34;5032291;28;20057;-68
2024/01/19 10:46:44;;;;;;;0.80;0.80;;;;;;;18.94;52.82;95924.47;5026073;28;20524;-75
2024/01/19 10:49:14;;;;;;;0.77;0.77;;;;;;;19.39;53.93;95951.00;5023511;28;20060;-74
2024/01/19 10:51:43;;;;;;;0.77;0.77;;;;;;;19.55;54.53;95970.50;5023305;28;20049;-73
2024/01/19 10:54:23;;;;;;;0.80;0.80;;;;;;;19.71;53.29;95977.22;5022327;28;20053;-59
2024/01/19 10:57:14;;;;;;;0.80;0.80;;;;;;;19.86;51.58;95983.88;5023691;28;20049;-74
2024/01/19 10:59:41;;;;;;;0.80;0.80;;;;;;;19.13;51.48;95927.03;5023253;28;20056;-62
2024/01/19 11:02:08;;;;;;;0.90;0.90;;;;;;;19.79;52.27;95984.16;5023037;28;20479;-59
2024/01/19 11:04:37;;;;;;;0.80;0.80;;;;;;;19.92;53.03;95979.22;5023292;28;20171;-75
2024/01/19 11:07:07;;;;;;;0.90;0.90;;;;;;;19.82;52.46;95972.78;5022942;28;20079;-60
2024/01/19 11:09:34;;;;;;;0.80;0.80;;;;;;;19.68;52.77;95955.66;5021633;28;20049;-61
2024/01/19 11:12:04;;;;;;;0.80;0.80;;;;;;;19.55;52.18;95973.31;5021787;28;20187;-75
2024/01/19 11:14:33;;;;;;;0.70;0.70;;;;;;;19.29;53.45;95963.41;5022166;28;20136;-59
2024/01/19 11:17:00;;;;;;;0.80;0.80;;;;;;;19.04;53.38;95934.56;5023249;28;20051;-73
2024/01/19 11:19:29;;;;;;;0.82;0.82;;;;;;;18.96;52.01;95905.19;5023443;28;20144;-74
2024/01/19 11:21:59;;;;;;;0.88;0.88;;;;;;;19.45;52.12;95943.59;5021258;28;20053;-58
2024/01/19 11:24:32;;;;;;;0.80;0.80;;;;;;;19.95;51.88;95967.09;5023408;28;20057;-58
2024/01/19 11:27:28;;;;;;;0.88;0.88;;;;;;;20.08;49.93;95962.97;5021989;28;20579;-59
2024/01/19 11:30:09;;;;;;;0.80;0.80;;;;;;;19.57;51.01;95955.25;5022683;28;20053;-60
2024/01/19 11:32:35;;;;;;;0.80;0.80;;;;;;;19.40;51.68;95958.22;5038334;28;20068;-72
2024/01/19 11:35:03;;;;;;;0.80;0.80;;;;;;;19.10;51.27;95946.81;5021708;28;20064;-58
2024/01/19 11:37:46;;;;;;;0.80;0.80;;;;;;;18.57;52.28;95895.28;5023017;28;20141;-71